createdAt,value
2023-05-03T00:00:40.189Z,6.60
2023-05-03T00:01:40.178Z,6.59
2023-05-03T00:02:40.623Z,6.49
2023-05-03T00:03:40.143Z,6.35
2023-05-03T00:04:40.224Z,6.29
2023-05-03T00:05:40.262Z,6.26
2023-05-03T00:06:40.160Z,6.22
2023-05-03T00:07:40.087Z,6.19
2023-05-03T00:08:40.085Z,6.19
2023-05-03T00:09:40.092Z,6.22
2023-05-03T00:10:40.054Z,6.25
2023-05-03T00:11:40.042Z,6.25
2023-05-03T00:12:40.046Z,6.25
2023-05-03T00:13:40.017Z,6.26
2023-05-03T00:14:40.043Z,6.28
2023-05-03T00:15:39.995Z,6.25
2023-05-03T00:16:40.027Z,6.20
2023-05-03T00:17:39.959Z,6.15
2023-05-03T00:18:39.963Z,6.15
2023-05-03T00:19:39.953Z,6.15
2023-05-03T00:20:39.924Z,6.10
2023-05-03T00:21:39.917Z,6.07
2023-05-03T00:22:39.914Z,6.05
2023-05-03T00:23:39.925Z,6.02
2023-05-03T00:24:39.897Z,6.05
2023-05-03T00:25:39.863Z,6.02
2023-05-03T00:26:39.845Z,6.02
2023-05-03T00:27:39.846Z,5.99
2023-05-03T00:28:39.828Z,5.99
2023-05-03T00:29:39.820Z,6.01
2023-05-03T00:30:39.797Z,6.02
2023-05-03T00:31:39.858Z,6.05
2023-05-03T00:32:39.821Z,6.01
2023-05-03T00:33:39.761Z,6.01
2023-05-03T00:34:39.766Z,6.01
2023-05-03T00:35:39.747Z,6.02
2023-05-03T00:36:39.721Z,5.99
2023-05-03T00:37:39.705Z,5.97
2023-05-03T00:38:39.701Z,5.98
2023-05-03T00:39:39.700Z,5.94
2023-05-03T00:40:39.660Z,5.91
2023-05-03T00:41:39.660Z,5.91
2023-05-03T00:42:39.651Z,5.88
2023-05-03T00:43:39.626Z,5.79
2023-05-03T00:44:39.631Z,5.77
2023-05-03T00:45:39.601Z,5.72
2023-05-03T00:46:39.637Z,5.64
2023-05-03T00:47:39.621Z,5.59
2023-05-03T00:48:39.572Z,5.58
2023-05-03T00:49:39.577Z,5.61
2023-05-03T00:50:39.551Z,5.62
2023-05-03T00:51:39.549Z,5.67
2023-05-03T00:52:39.512Z,5.70
2023-05-03T00:53:39.487Z,5.72
2023-05-03T00:54:39.519Z,5.72
2023-05-03T00:55:39.466Z,5.73
2023-05-03T00:56:50.459Z,5.70
2023-05-03T00:57:40.452Z,5.69
2023-05-03T00:58:39.436Z,5.72
2023-05-03T00:59:39.426Z,5.73
2023-05-03T01:00:39.401Z,5.76
2023-05-03T01:01:39.448Z,5.76
2023-05-03T01:02:39.443Z,5.77
2023-05-03T01:03:39.390Z,5.76
2023-05-03T01:04:40.528Z,5.74
2023-05-03T01:05:39.328Z,5.73
2023-05-03T01:06:39.343Z,5.73
2023-05-03T01:07:39.302Z,5.73
2023-05-03T01:08:39.312Z,5.73
2023-05-03T01:09:39.301Z,5.72
2023-05-03T01:10:39.277Z,5.69
2023-05-03T01:11:39.260Z,5.65
2023-05-03T01:12:39.237Z,5.64
2023-05-03T01:13:39.231Z,5.65
2023-05-03T01:14:39.329Z,5.64
2023-05-03T01:15:39.199Z,5.65
2023-05-03T01:16:39.315Z,5.64
2023-05-03T01:17:39.197Z,5.62
2023-05-03T01:18:39.169Z,5.58
2023-05-03T01:19:39.180Z,5.55
2023-05-03T01:20:39.136Z,5.54
2023-05-03T01:21:39.113Z,5.54
2023-05-03T01:22:39.110Z,5.52
2023-05-03T01:23:39.088Z,5.55
2023-05-03T01:24:39.093Z,5.55
2023-05-03T01:25:39.070Z,5.56
2023-05-03T01:26:39.055Z,5.56
2023-05-03T01:27:39.817Z,5.55
2023-05-03T01:28:39.028Z,5.55
2023-05-03T01:29:39.022Z,5.52
2023-05-03T01:30:39.009Z,5.54
2023-05-03T01:31:39.087Z,5.52
2023-05-03T01:32:39.028Z,5.52
2023-05-03T01:33:38.962Z,5.51
2023-05-03T01:34:38.996Z,5.52
2023-05-03T01:35:38.935Z,5.51
2023-05-03T01:36:38.924Z,5.52
2023-05-03T01:37:38.904Z,5.54
2023-05-03T01:38:38.908Z,5.54
2023-05-03T01:39:38.902Z,5.52
2023-05-03T01:40:38.869Z,5.52
2023-05-03T01:41:38.855Z,5.54
2023-05-03T01:42:38.843Z,5.49
2023-05-03T01:43:38.824Z,5.47
2023-05-03T01:44:38.837Z,5.47
2023-05-03T01:45:38.865Z,5.46
2023-05-03T01:46:38.792Z,5.46
2023-05-03T01:47:38.833Z,5.41
2023-05-03T01:48:38.761Z,5.40
2023-05-03T01:49:38.762Z,5.37
2023-05-03T01:50:38.746Z,5.37
2023-05-03T01:51:38.720Z,5.36
2023-05-03T01:52:38.711Z,5.36
2023-05-03T01:53:38.760Z,5.33
2023-05-03T01:54:38.698Z,5.31
2023-05-03T01:55:38.655Z,5.29
2023-05-03T01:56:38.657Z,5.25
2023-05-03T01:57:38.649Z,5.22
2023-05-03T01:58:38.630Z,5.19
2023-05-03T01:59:38.636Z,5.10
2023-05-03T02:00:38.620Z,5.10
2023-05-03T02:01:38.684Z,5.10
2023-05-03T02:02:38.661Z,5.13
2023-05-03T02:03:38.557Z,5.13
2023-05-03T02:04:38.622Z,5.12
2023-05-03T02:05:38.563Z,5.12
2023-05-03T02:06:38.577Z,5.05
2023-05-03T02:07:38.513Z,5.04
2023-05-03T02:08:38.507Z,5.05
2023-05-03T02:09:38.561Z,5.04
2023-05-03T02:10:38.486Z,5.04
2023-05-03T02:11:38.473Z,5.01
2023-05-03T02:12:38.451Z,5.02
2023-05-03T02:13:38.431Z,5.01
2023-05-03T02:14:38.440Z,4.97
2023-05-03T02:15:38.411Z,4.95
2023-05-03T02:16:38.410Z,4.97
2023-05-03T02:17:38.429Z,4.97
2023-05-03T02:18:38.357Z,4.97
2023-05-03T02:19:38.372Z,4.95
2023-05-03T02:20:38.347Z,4.97
2023-05-03T02:21:38.325Z,4.97
2023-05-03T02:22:38.394Z,4.95
2023-05-03T02:23:38.298Z,4.97
2023-05-03T02:24:38.314Z,4.95
2023-05-03T02:25:38.275Z,4.98
2023-05-03T02:26:38.270Z,4.95
2023-05-03T02:27:38.246Z,4.89
2023-05-03T02:28:38.228Z,4.86
2023-05-03T02:29:38.235Z,4.83
2023-05-03T02:30:38.244Z,4.79
2023-05-03T02:31:38.185Z,4.71
2023-05-03T02:32:38.211Z,4.70
2023-05-03T02:33:38.172Z,4.67
2023-05-03T02:34:38.158Z,4.66
2023-05-03T02:35:38.139Z,4.63
2023-05-03T02:36:38.140Z,4.63
2023-05-03T02:37:38.143Z,4.61
2023-05-03T02:38:38.123Z,4.58
2023-05-03T02:39:38.096Z,4.58
2023-05-03T02:40:38.076Z,4.58
2023-05-03T02:41:38.096Z,4.58
2023-05-03T02:42:38.043Z,4.61
2023-05-03T02:43:38.059Z,4.64
2023-05-03T02:44:38.134Z,4.66
2023-05-03T02:45:38.070Z,4.64
2023-05-03T02:46:38.047Z,4.64
2023-05-03T02:47:38.018Z,4.66
2023-05-03T02:48:37.967Z,4.64
2023-05-03T02:49:37.961Z,4.64
2023-05-03T02:50:37.942Z,4.64
2023-05-03T02:51:37.921Z,4.61
2023-05-03T02:52:37.908Z,4.63
2023-05-03T02:53:37.887Z,4.60
2023-05-03T02:54:37.891Z,4.57
2023-05-03T02:55:37.891Z,4.56
2023-05-03T02:56:37.868Z,4.56
2023-05-03T02:57:37.831Z,4.53
2023-05-03T02:58:37.825Z,4.53
2023-05-03T02:59:37.823Z,4.53
2023-05-03T03:00:37.793Z,4.53
2023-05-03T03:01:37.809Z,4.53
2023-05-03T03:02:37.856Z,4.50
2023-05-03T03:03:37.948Z,4.45
2023-05-03T03:04:37.765Z,4.38
2023-05-03T03:05:37.723Z,4.34
2023-05-03T03:06:37.825Z,4.31
2023-05-03T03:07:37.703Z,4.31
2023-05-03T03:08:37.694Z,4.30
2023-05-03T03:09:37.692Z,4.28
2023-05-03T03:10:37.676Z,4.25
2023-05-03T03:11:37.661Z,4.24
2023-05-03T03:12:37.640Z,4.22
2023-05-03T03:13:37.647Z,4.28
2023-05-03T03:14:37.634Z,4.27
2023-05-03T03:15:37.629Z,4.27
2023-05-03T03:16:37.766Z,4.27
2023-05-03T03:17:37.613Z,4.28
2023-05-03T03:18:37.592Z,4.25
2023-05-03T03:19:37.569Z,4.22
2023-05-03T03:20:37.556Z,4.18
2023-05-03T03:21:37.519Z,4.18
2023-05-03T03:22:37.506Z,4.21
2023-05-03T03:24:29.680Z,4.21
2023-05-03T03:25:29.650Z,4.18
2023-05-03T03:26:29.630Z,4.18
2023-05-03T03:27:29.607Z,4.20
2023-05-03T03:28:29.615Z,4.21
2023-05-03T03:29:29.603Z,4.21
2023-05-03T03:30:29.586Z,4.22
2023-05-03T03:31:29.633Z,4.22
2023-05-03T03:32:29.550Z,4.24
2023-05-03T03:33:29.534Z,4.25
2023-05-03T03:34:29.518Z,4.25
2023-05-03T03:35:29.533Z,4.24
2023-05-03T03:36:29.504Z,4.21
2023-05-03T03:37:29.477Z,4.18
2023-05-03T03:38:29.473Z,4.13
2023-05-03T03:39:29.440Z,4.12
2023-05-03T03:40:29.449Z,4.10
2023-05-03T03:41:29.428Z,4.06
2023-05-03T03:42:29.426Z,4.03
2023-05-03T03:43:29.415Z,4.03
2023-05-03T03:44:29.397Z,4.03
2023-05-03T03:45:29.389Z,4.00
2023-05-03T03:46:29.384Z,3.99
2023-05-03T03:47:29.385Z,3.96
2023-05-03T03:48:29.340Z,3.96
2023-05-03T03:49:29.311Z,3.96
2023-05-03T03:50:29.344Z,3.99
2023-05-03T03:51:29.282Z,3.99
2023-05-03T03:52:29.278Z,3.92
2023-05-03T03:53:29.263Z,3.91
2023-05-03T03:54:29.260Z,3.92
2023-05-03T03:55:29.278Z,3.94
2023-05-03T03:56:29.227Z,3.92
2023-05-03T03:57:29.211Z,3.92
2023-05-03T03:58:29.208Z,3.92
2023-05-03T03:59:29.196Z,3.95
2023-05-03T04:00:29.192Z,3.92
2023-05-03T04:01:29.154Z,3.94
2023-05-03T04:02:29.246Z,3.95
2023-05-03T04:03:29.164Z,3.96
2023-05-03T04:04:29.211Z,3.96
2023-05-03T04:05:29.123Z,3.96
2023-05-03T04:06:29.180Z,3.96
2023-05-03T04:07:29.072Z,3.95
2023-05-03T04:08:29.071Z,3.95
2023-05-03T04:09:29.060Z,3.95
2023-05-03T04:10:29.053Z,3.95
2023-05-03T04:11:29.034Z,3.92
2023-05-03T04:12:29.021Z,3.91
2023-05-03T04:13:29.000Z,3.92
2023-05-03T04:14:28.988Z,3.88
2023-05-03T04:15:28.988Z,3.85
2023-05-03T04:16:28.983Z,3.84
2023-05-03T04:17:28.970Z,3.84
2023-05-03T04:18:28.935Z,3.84
2023-05-03T04:19:28.908Z,3.85
2023-05-03T04:20:28.951Z,3.89
2023-05-03T04:21:28.898Z,3.91
2023-05-03T04:22:28.887Z,3.91
2023-05-03T04:23:28.884Z,3.91
2023-05-03T04:24:28.852Z,3.94
2023-05-03T04:25:28.858Z,3.95
2023-05-03T04:26:32.081Z,3.94
2023-05-03T04:27:28.807Z,3.96
2023-05-03T04:28:28.797Z,3.96
2023-05-03T04:29:28.806Z,3.99
2023-05-03T04:30:28.838Z,3.96
2023-05-03T04:31:28.925Z,3.99
2023-05-03T04:32:28.775Z,3.99
2023-05-03T04:33:28.723Z,3.99
2023-05-03T04:34:28.722Z,3.99
2023-05-03T04:35:28.741Z,3.96
2023-05-03T04:36:28.689Z,4.00
2023-05-03T04:37:28.688Z,4.03
2023-05-03T04:38:28.732Z,4.09
2023-05-03T04:39:28.647Z,4.16
2023-05-03T04:40:28.660Z,4.21
2023-05-03T04:41:28.610Z,4.25
2023-05-03T04:42:28.620Z,4.30
2023-05-03T04:43:28.610Z,4.32
2023-05-03T04:44:28.600Z,4.34
2023-05-03T04:45:28.583Z,4.34
2023-05-03T04:46:28.652Z,4.36
2023-05-03T04:47:28.547Z,4.31
2023-05-03T04:48:28.539Z,4.30
2023-05-03T04:49:28.530Z,4.28
2023-05-03T04:50:28.506Z,4.25
2023-05-03T04:51:28.608Z,4.61
2023-05-03T04:52:28.481Z,5.69
2023-05-03T04:53:28.457Z,6.78
2023-05-03T04:54:28.468Z,7.50
2023-05-03T04:55:28.438Z,8.21
2023-05-03T04:56:28.456Z,8.82
2023-05-03T04:57:28.406Z,9.33
2023-05-03T04:58:28.404Z,9.69
2023-05-03T04:59:28.386Z,9.90
2023-05-03T05:00:28.392Z,10.02
2023-05-03T05:01:28.452Z,10.07
2023-05-03T05:02:28.490Z,10.15
2023-05-03T05:03:28.527Z,10.21
2023-05-03T05:04:28.432Z,10.28
2023-05-03T05:05:28.907Z,10.36
2023-05-03T05:06:28.352Z,10.36
2023-05-03T05:07:28.274Z,10.41
2023-05-03T05:08:28.487Z,10.53
2023-05-03T05:09:28.258Z,10.46
2023-05-03T05:10:28.255Z,10.48
2023-05-03T05:11:28.235Z,10.58
2023-05-03T05:12:28.202Z,10.64
2023-05-03T05:13:28.198Z,10.58
2023-05-03T05:14:28.232Z,10.55
2023-05-03T05:15:28.178Z,10.53
2023-05-03T05:16:28.229Z,10.51
2023-05-03T05:17:28.224Z,10.15
2023-05-03T05:18:28.156Z,9.80
2023-05-03T05:19:28.111Z,9.58
2023-05-03T05:20:28.126Z,8.96
2023-05-03T05:21:28.096Z,8.38
2023-05-03T05:22:28.074Z,7.87
2023-05-03T05:23:28.119Z,7.39
2023-05-03T05:24:28.082Z,7.07
2023-05-03T05:25:28.049Z,6.80
2023-05-03T05:26:28.023Z,6.54
2023-05-03T05:27:28.011Z,6.31
2023-05-03T05:28:28.001Z,6.10
2023-05-03T05:29:27.981Z,5.97
2023-05-03T05:30:27.983Z,5.83
2023-05-03T05:31:27.956Z,5.76
2023-05-03T05:32:27.938Z,5.67
2023-05-03T05:33:27.966Z,5.62
2023-05-03T05:34:27.916Z,5.56
2023-05-03T05:35:27.900Z,5.52
2023-05-03T05:36:27.909Z,6.13
2023-05-03T05:37:27.882Z,6.87
2023-05-03T05:38:27.860Z,6.87
2023-05-03T05:39:27.857Z,6.82
2023-05-03T05:40:27.833Z,6.72
2023-05-03T05:41:27.859Z,6.60
2023-05-03T05:42:27.817Z,6.49
2023-05-03T05:43:27.804Z,6.35
2023-05-03T05:44:27.774Z,6.22
2023-05-03T05:45:27.776Z,6.13
2023-05-03T05:46:27.819Z,6.06
2023-05-03T05:47:27.874Z,6.01
2023-05-03T05:48:27.733Z,6.01
2023-05-03T05:49:27.723Z,5.98
2023-05-03T05:50:27.717Z,5.94
2023-05-03T05:51:27.712Z,5.88
2023-05-03T05:52:27.684Z,5.84
2023-05-03T05:53:27.678Z,5.84
2023-05-03T05:54:28.698Z,5.88
2023-05-03T05:55:27.650Z,5.91
2023-05-03T05:56:27.647Z,5.92
2023-05-03T05:57:27.610Z,5.94
2023-05-03T05:58:27.623Z,6.01
2023-05-03T05:59:27.595Z,6.02
2023-05-03T06:00:27.573Z,6.09
2023-05-03T06:01:27.591Z,6.15
2023-05-03T06:02:27.653Z,6.17
2023-05-03T06:03:27.598Z,6.19
2023-05-03T06:04:27.538Z,6.22
2023-05-03T06:05:27.590Z,6.22
2023-05-03T06:06:27.568Z,6.26
2023-05-03T06:07:27.486Z,6.28
2023-05-03T06:08:27.475Z,6.31
2023-05-03T06:09:27.475Z,6.29
2023-05-03T06:10:27.451Z,6.31
2023-05-03T06:11:27.463Z,6.32
2023-05-03T06:12:27.425Z,6.34
2023-05-03T06:13:27.412Z,6.36
2023-05-03T06:14:27.397Z,6.38
2023-05-03T06:15:27.390Z,6.43
2023-05-03T06:16:27.401Z,6.44
2023-05-03T06:17:27.424Z,6.49
2023-05-03T06:18:27.342Z,6.53
2023-05-03T06:19:27.335Z,6.56
2023-05-03T06:20:27.314Z,6.59
2023-05-03T06:21:27.320Z,6.60
2023-05-03T06:22:27.289Z,6.65
2023-05-03T06:23:27.276Z,6.68
2023-05-03T06:24:27.276Z,6.72
2023-05-03T06:25:27.250Z,6.77
2023-05-03T06:26:27.271Z,6.78
2023-05-03T06:27:27.235Z,6.83
2023-05-03T06:28:27.214Z,6.86
2023-05-03T06:29:27.213Z,6.92
2023-05-03T06:30:27.465Z,6.90
2023-05-03T06:31:27.289Z,6.92
2023-05-03T06:32:27.168Z,6.93
2023-05-03T06:33:27.139Z,6.96
2023-05-03T06:34:27.140Z,7.00
2023-05-03T06:35:27.136Z,7.05
2023-05-03T06:36:27.136Z,7.07
2023-05-03T06:37:27.113Z,7.10
2023-05-03T06:38:27.067Z,7.14
2023-05-03T06:39:27.086Z,7.19
2023-05-03T06:40:27.195Z,7.23
2023-05-03T06:41:27.072Z,7.31
2023-05-03T06:42:27.023Z,7.36
2023-05-03T06:43:27.021Z,7.43
2023-05-03T06:44:26.999Z,7.51
2023-05-03T06:45:26.987Z,7.59
2023-05-03T06:46:27.048Z,7.66
2023-05-03T06:47:26.974Z,7.69
2023-05-03T06:48:27.022Z,7.78
2023-05-03T06:49:26.935Z,7.84
2023-05-03T06:50:27.002Z,7.84
2023-05-03T06:51:26.928Z,7.87
2023-05-03T06:52:26.904Z,7.93
2023-05-03T06:53:26.884Z,7.99
2023-05-03T06:54:26.886Z,8.06
2023-05-03T06:55:26.897Z,8.11
2023-05-03T06:56:26.855Z,8.17
2023-05-03T06:57:28.599Z,8.23
2023-05-03T06:58:26.810Z,8.26
2023-05-03T06:59:26.805Z,8.31
2023-05-03T07:00:26.911Z,8.36
2023-05-03T07:01:26.848Z,8.42
2023-05-03T07:02:26.950Z,8.49
2023-05-03T07:03:26.909Z,8.54
2023-05-03T07:04:26.738Z,8.57
2023-05-03T07:05:26.720Z,8.60
2023-05-03T07:06:26.768Z,8.63
2023-05-03T07:07:26.730Z,8.66
2023-05-03T07:08:26.730Z,8.69
2023-05-03T07:10:26.741Z,8.77
2023-05-03T07:11:26.635Z,8.78
2023-05-03T07:12:26.663Z,8.84
2023-05-03T07:13:26.620Z,8.87
2023-05-03T07:14:26.593Z,8.92
2023-05-03T07:15:26.590Z,8.96
2023-05-03T07:16:26.629Z,9.03
2023-05-03T07:17:26.610Z,9.09
2023-05-03T07:18:26.569Z,9.19
2023-05-03T07:19:26.526Z,9.24
2023-05-03T07:20:26.520Z,9.29
2023-05-03T07:21:26.509Z,9.34
2023-05-03T07:22:26.506Z,9.36
2023-05-03T07:23:26.476Z,9.37
2023-05-03T07:24:26.470Z,9.42
2023-05-03T07:25:26.479Z,9.48
2023-05-03T07:26:26.437Z,9.52
2023-05-03T07:27:26.452Z,9.55
2023-05-03T07:28:26.412Z,9.56
2023-05-03T07:29:26.391Z,9.62
2023-05-03T07:30:26.382Z,9.64
2023-05-03T07:31:26.367Z,9.63
2023-05-03T07:32:26.417Z,9.66
2023-05-03T07:33:26.397Z,9.66
2023-05-03T07:34:26.330Z,9.70
2023-05-03T07:35:26.311Z,9.73
2023-05-03T07:36:26.291Z,9.76
2023-05-03T07:37:26.307Z,9.81
2023-05-03T07:38:26.261Z,9.82
2023-05-03T07:39:26.261Z,9.87
2023-05-03T07:40:26.253Z,9.92
2023-05-03T07:41:26.231Z,9.97
2023-05-03T07:42:26.248Z,9.99
2023-05-03T07:43:26.236Z,10.06
2023-05-03T07:44:26.182Z,10.07
2023-05-03T07:45:26.184Z,10.07
2023-05-03T07:46:26.260Z,10.09
2023-05-03T07:47:26.218Z,10.10
2023-05-03T07:48:26.127Z,10.15
2023-05-03T07:49:26.143Z,10.18
2023-05-03T07:50:26.107Z,10.23
2023-05-03T07:51:26.098Z,10.27
2023-05-03T07:52:26.085Z,10.31
2023-05-03T07:53:26.057Z,10.31
2023-05-03T07:54:26.060Z,10.36
2023-05-03T07:55:26.040Z,10.36
2023-05-03T07:56:26.037Z,10.38
2023-05-03T07:57:26.030Z,10.38
2023-05-03T07:58:38.992Z,10.41
2023-05-03T07:59:26.975Z,10.42
2023-05-03T08:00:25.988Z,10.42
2023-05-03T08:01:25.967Z,10.42
2023-05-03T08:02:26.059Z,10.45
2023-05-03T08:03:26.107Z,10.43
2023-05-03T08:04:26.194Z,10.45
2023-05-03T08:05:25.966Z,10.45
2023-05-03T08:06:26.002Z,10.48
2023-05-03T08:07:25.892Z,10.51
2023-05-03T08:08:25.856Z,10.55
2023-05-03T08:09:25.844Z,10.57
2023-05-03T08:10:25.823Z,10.64
2023-05-03T08:11:25.832Z,10.65
2023-05-03T08:12:25.828Z,10.69
2023-05-03T08:13:25.808Z,10.72
2023-05-03T08:14:25.807Z,10.68
2023-05-03T08:15:25.771Z,10.68
2023-05-03T08:16:25.863Z,10.68
2023-05-03T08:17:25.769Z,10.71
2023-05-03T08:18:25.730Z,10.72
2023-05-03T08:19:25.714Z,10.77
2023-05-03T08:20:25.727Z,10.80
2023-05-03T08:21:25.691Z,10.83
2023-05-03T08:22:25.666Z,10.87
2023-05-03T08:23:25.662Z,10.92
2023-05-03T08:24:25.651Z,10.97
2023-05-03T08:25:25.650Z,11.01
2023-05-03T08:26:25.612Z,11.07
2023-05-03T08:27:25.612Z,11.08
2023-05-03T08:28:25.605Z,11.13
2023-05-03T08:29:27.515Z,11.16
2023-05-03T08:30:25.637Z,11.19
2023-05-03T08:31:25.577Z,11.20
2023-05-03T08:32:25.572Z,11.23
2023-05-03T08:33:25.521Z,11.22
2023-05-03T08:34:25.531Z,11.22
2023-05-03T08:35:25.518Z,11.25
2023-05-03T08:36:25.484Z,11.27
2023-05-03T08:37:25.482Z,11.34
2023-05-03T08:38:25.520Z,11.38
2023-05-03T08:39:25.463Z,11.40
2023-05-03T08:40:25.432Z,11.40
2023-05-03T08:41:25.446Z,11.45
2023-05-03T08:42:25.883Z,11.48
2023-05-03T08:43:25.392Z,11.51
2023-05-03T08:44:25.391Z,11.53
2023-05-03T08:45:25.371Z,11.58
2023-05-03T08:46:25.364Z,11.58
2023-05-03T08:47:25.357Z,11.60
2023-05-03T08:48:25.318Z,11.62
2023-05-03T08:49:25.326Z,11.65
2023-05-03T08:50:25.309Z,11.67
2023-05-03T08:51:25.292Z,11.70
2023-05-03T08:52:25.263Z,11.73
2023-05-03T08:53:25.281Z,11.71
2023-05-03T08:54:25.253Z,11.74
2023-05-03T08:55:25.236Z,11.74
2023-05-03T08:56:25.215Z,11.76
2023-05-03T08:57:25.215Z,11.78
2023-05-03T08:58:25.211Z,11.80
2023-05-03T08:59:25.185Z,11.81
2023-05-03T09:00:25.172Z,11.83
2023-05-03T09:01:25.170Z,11.88
2023-05-03T09:02:25.247Z,11.91
2023-05-03T09:03:25.248Z,11.95
2023-05-03T09:04:25.230Z,11.97
2023-05-03T09:05:25.096Z,11.99
2023-05-03T09:06:25.144Z,11.96
2023-05-03T09:07:25.105Z,11.95
2023-05-03T09:08:25.071Z,11.96
2023-05-03T09:09:25.045Z,11.99
2023-05-03T09:10:25.050Z,12.02
2023-05-03T09:11:25.013Z,12.08
2023-05-03T09:12:25.016Z,12.14
2023-05-03T09:13:24.982Z,12.18
2023-05-03T09:14:24.974Z,12.23
2023-05-03T09:15:24.976Z,12.26
2023-05-03T09:16:24.979Z,12.30
2023-05-03T09:17:24.943Z,12.33
2023-05-03T09:18:24.921Z,12.37
2023-05-03T09:19:24.911Z,12.44
2023-05-03T09:20:24.904Z,12.45
2023-05-03T09:21:24.910Z,12.43
2023-05-03T09:22:24.881Z,12.44
2023-05-03T09:23:24.855Z,12.47
2023-05-03T09:24:31.925Z,12.48
2023-05-03T09:25:24.823Z,12.48
2023-05-03T09:26:24.836Z,12.45
2023-05-03T09:27:24.799Z,12.47
2023-05-03T09:28:24.782Z,12.50
2023-05-03T09:29:24.776Z,12.51
2023-05-03T09:30:24.746Z,12.53
2023-05-03T09:31:24.806Z,12.54
2023-05-03T09:32:24.780Z,12.65
2023-05-03T09:33:24.712Z,12.70
2023-05-03T09:34:24.733Z,12.75
2023-05-03T09:35:24.702Z,12.81
2023-05-03T09:36:24.692Z,12.86
2023-05-03T09:37:24.668Z,12.86
2023-05-03T09:38:24.668Z,12.90
2023-05-03T09:39:24.640Z,12.90
2023-05-03T09:40:24.649Z,12.91
2023-05-03T09:41:24.621Z,12.90
2023-05-03T09:42:24.597Z,12.90
2023-05-03T09:43:24.610Z,12.94
2023-05-03T09:44:24.601Z,12.95
2023-05-03T09:45:24.588Z,12.99
2023-05-03T09:46:24.674Z,13.06
2023-05-03T09:47:24.588Z,13.11
2023-05-03T09:48:24.514Z,13.16
2023-05-03T09:49:24.516Z,13.19
2023-05-03T09:50:24.504Z,13.20
2023-05-03T09:51:24.468Z,13.24
2023-05-03T09:52:24.467Z,13.24
2023-05-03T09:53:24.471Z,13.23
2023-05-03T09:54:25.664Z,13.23
2023-05-03T09:55:24.447Z,13.26
2023-05-03T09:56:24.413Z,13.28
2023-05-03T09:57:24.415Z,13.30
2023-05-03T09:58:24.385Z,13.33
2023-05-03T09:59:24.392Z,13.33
2023-05-03T10:00:24.381Z,13.36
2023-05-03T10:01:24.406Z,13.36
2023-05-03T10:02:24.372Z,13.30
2023-05-03T10:03:24.430Z,13.36
2023-05-03T10:04:24.385Z,13.37
2023-05-03T10:05:24.302Z,13.42
2023-05-03T10:06:24.308Z,13.45
2023-05-03T10:07:24.262Z,13.49
2023-05-03T10:08:24.261Z,13.54
2023-05-03T10:09:24.261Z,13.57
2023-05-03T10:10:24.230Z,13.57
2023-05-03T10:11:24.214Z,13.60
2023-05-03T10:12:24.209Z,13.65
2023-05-03T10:13:24.249Z,13.71
2023-05-03T10:14:24.203Z,13.76
2023-05-03T10:15:24.172Z,13.80
2023-05-03T10:16:24.245Z,13.83
2023-05-03T10:17:35.333Z,13.87
2023-05-03T10:18:25.201Z,13.75
2023-05-03T10:19:24.100Z,13.70
2023-05-03T10:20:24.091Z,13.65
2023-05-03T10:21:24.073Z,13.65
2023-05-03T10:22:24.070Z,13.60
2023-05-03T10:23:24.085Z,13.62
2023-05-03T10:24:24.089Z,13.67
2023-05-03T10:25:24.018Z,13.71
2023-05-03T10:26:24.009Z,13.76
2023-05-03T10:27:24.010Z,13.80
2023-05-03T10:28:24.016Z,13.87
2023-05-03T10:29:23.963Z,13.93
2023-05-03T10:30:23.963Z,13.97
2023-05-03T10:31:23.955Z,13.97
2023-05-03T10:32:23.963Z,14.01
2023-05-03T10:33:23.927Z,14.04
2023-05-03T10:34:23.908Z,14.12
2023-05-03T10:35:23.881Z,14.15
2023-05-03T10:36:23.874Z,14.22
2023-05-03T10:37:23.867Z,14.25
2023-05-03T10:38:23.844Z,14.28
2023-05-03T10:39:23.843Z,14.34
2023-05-03T10:40:23.859Z,14.43
2023-05-03T10:41:23.796Z,14.49
2023-05-03T10:42:23.806Z,14.53
2023-05-03T10:43:23.774Z,14.59
2023-05-03T10:44:23.757Z,14.62
2023-05-03T10:45:23.777Z,14.67
2023-05-03T10:46:23.750Z,14.66
2023-05-03T10:47:23.770Z,14.61
2023-05-03T10:48:23.703Z,14.61
2023-05-03T10:49:23.701Z,14.58
2023-05-03T10:50:23.711Z,14.55
2023-05-03T10:51:23.676Z,14.53
2023-05-03T10:52:23.672Z,14.51
2023-05-03T10:53:23.634Z,14.55
2023-05-03T10:54:23.620Z,14.56
2023-05-03T10:55:23.609Z,14.53
2023-05-03T10:56:23.609Z,14.52
2023-05-03T10:57:23.594Z,14.52
2023-05-03T10:58:23.596Z,14.53
2023-05-03T10:59:23.550Z,14.59
2023-05-03T11:00:23.568Z,14.62
2023-05-03T11:01:23.614Z,14.61
2023-05-03T11:02:23.579Z,14.63
2023-05-03T11:03:23.510Z,14.68
2023-05-03T11:04:23.598Z,14.73
2023-05-03T11:05:23.470Z,14.82
2023-05-03T11:06:23.528Z,14.89
2023-05-03T11:07:23.462Z,14.93
2023-05-03T11:08:23.428Z,14.99
2023-05-03T11:09:23.428Z,15.04
2023-05-03T11:10:23.411Z,15.05
2023-05-03T11:11:23.413Z,15.07
2023-05-03T11:12:23.383Z,15.05
2023-05-03T11:13:23.404Z,15.04
2023-05-03T11:14:23.349Z,15.08
2023-05-03T11:15:23.360Z,15.11
2023-05-03T11:16:23.349Z,15.14
2023-05-03T11:17:23.302Z,15.18
2023-05-03T11:18:23.304Z,15.23
2023-05-03T11:19:23.307Z,15.25
2023-05-03T11:20:23.292Z,15.26
2023-05-03T11:21:23.255Z,15.27
2023-05-03T11:22:23.245Z,15.30
2023-05-03T11:23:23.234Z,15.30
2023-05-03T11:24:23.236Z,15.26
2023-05-03T11:25:23.233Z,15.26
2023-05-03T11:26:23.194Z,15.26
2023-05-03T11:27:23.191Z,15.30
2023-05-03T11:28:23.186Z,15.37
2023-05-03T11:29:23.150Z,15.47
2023-05-03T11:30:23.160Z,15.51
2023-05-03T11:31:23.298Z,15.51
2023-05-03T11:32:23.173Z,15.50
2023-05-03T11:33:23.089Z,15.54
2023-05-03T11:34:23.121Z,15.57
2023-05-03T11:35:23.105Z,15.65
2023-05-03T11:36:23.056Z,15.69
2023-05-03T11:37:23.040Z,15.75
2023-05-03T11:38:23.029Z,15.80
2023-05-03T11:39:23.039Z,15.84
2023-05-03T11:40:23.022Z,15.88
2023-05-03T11:41:22.988Z,15.85
2023-05-03T11:42:22.971Z,15.84
2023-05-03T11:43:22.966Z,15.87
2023-05-03T11:44:22.982Z,15.94
2023-05-03T11:45:23.313Z,15.96
2023-05-03T11:46:23.004Z,15.88
2023-05-03T11:47:22.926Z,15.90
2023-05-03T11:48:22.941Z,15.84
2023-05-03T11:49:22.933Z,15.83
2023-05-03T11:50:22.871Z,15.87
2023-05-03T11:51:22.849Z,15.92
2023-05-03T11:52:22.849Z,15.99
2023-05-03T11:53:22.848Z,16.02
2023-05-03T11:54:26.315Z,16.05
2023-05-03T11:55:22.825Z,16.05
2023-05-03T11:56:22.831Z,16.08
2023-05-03T11:57:22.783Z,16.06
2023-05-03T11:58:22.794Z,16.13
2023-05-03T11:59:22.774Z,16.21
2023-05-03T12:00:22.724Z,16.26
2023-05-03T12:01:22.767Z,16.26
2023-05-03T12:02:22.769Z,16.31
2023-05-03T12:03:24.776Z,16.32
2023-05-03T12:04:23.986Z,16.31
2023-05-03T12:05:23.291Z,16.34
2023-05-03T12:06:23.673Z,16.37
2023-05-03T12:07:23.963Z,16.44
2023-05-03T12:08:24.972Z,16.49
2023-05-03T12:09:24.044Z,16.50
2023-05-03T12:10:25.944Z,16.54
2023-05-03T12:11:25.756Z,16.55
2023-05-03T12:12:26.917Z,16.58
2023-05-03T12:13:25.146Z,16.59
2023-05-03T12:14:22.742Z,16.61
2023-05-03T12:15:23.215Z,16.65
2023-05-03T12:16:22.698Z,16.65
2023-05-03T12:17:22.785Z,16.69
2023-05-03T12:18:22.719Z,16.74
2023-05-03T12:22:26.474Z,16.99
2023-05-03T12:23:22.757Z,17.07
2023-05-03T12:24:24.350Z,17.13
2023-05-03T12:25:25.718Z,17.17
2023-05-03T12:26:22.486Z,17.20
2023-05-03T12:27:23.944Z,17.30
2023-05-03T12:28:22.688Z,17.35
2023-05-03T12:29:23.836Z,17.39
2023-05-03T12:30:23.508Z,17.46
2023-05-03T12:31:23.009Z,17.50
2023-05-03T12:32:23.251Z,17.54
2023-05-03T12:33:23.394Z,17.60
2023-05-03T12:34:33.980Z,17.63
2023-05-03T12:35:23.659Z,17.57
2023-05-03T12:36:25.841Z,17.56
2023-05-03T12:37:22.673Z,17.65
2023-05-03T12:38:23.996Z,17.68
2023-05-03T12:39:22.480Z,17.68
2023-05-03T12:40:33.676Z,17.71
2023-05-03T12:41:52.248Z,17.73
2023-05-03T12:42:23.230Z,17.78
2023-05-03T12:43:22.310Z,17.76
2023-05-03T12:44:23.683Z,17.71
2023-05-03T12:45:22.572Z,17.76
2023-05-03T12:46:34.142Z,17.80
2023-05-03T12:47:28.539Z,17.86
2023-05-03T12:48:23.190Z,17.94
2023-05-03T12:49:23.632Z,18.00
2023-05-03T12:50:24.759Z,18.00
2023-05-03T12:51:26.033Z,18.00
2023-05-03T12:52:37.125Z,17.93
2023-05-03T12:53:25.810Z,17.94
2023-05-03T12:54:24.283Z,17.97
2023-05-03T12:55:25.373Z,18.03
2023-05-03T12:56:24.987Z,18.06
2023-05-03T12:57:23.693Z,18.12
2023-05-03T12:58:51.941Z,18.18
2023-05-03T13:00:24.986Z,18.13
2023-05-03T13:02:03.411Z,18.15
2023-05-03T13:03:22.727Z,18.09
2023-05-03T13:04:55.998Z,18.08
2023-05-03T13:05:34.558Z,17.95
2023-05-03T13:06:23.097Z,17.93
2023-05-03T13:07:28.048Z,17.91
2023-05-03T13:08:23.129Z,17.97
2023-05-03T13:09:28.611Z,18.00
2023-05-03T13:10:22.840Z,18.03
2023-05-03T13:11:21.969Z,18.08
2023-05-03T13:12:21.861Z,18.06
2023-05-03T13:13:21.758Z,18.03